createdAt,value
2019-05-03T00:00:15.992Z,1000.25
2019-05-03T00:01:15.985Z,1000.25
2019-05-03T00:02:15.984Z,1000.25
2019-05-03T00:03:15.977Z,1000.25
2019-05-03T00:04:15.971Z,1000.27
2019-05-03T00:05:15.966Z,1000.27
2019-05-03T00:06:15.961Z,1000.27
2019-05-03T00:07:15.956Z,1000.27
2019-05-03T00:08:15.950Z,1000.24
2019-05-03T00:09:15.946Z,1000.25
2019-05-03T00:10:15.941Z,1000.32
2019-05-03T00:11:15.936Z,1000.32
2019-05-03T00:12:15.936Z,1000.31
2019-05-03T00:13:15.926Z,1000.30
2019-05-03T00:14:15.921Z,1000.31
2019-05-03T00:15:15.914Z,1000.31
2019-05-03T00:16:15.911Z,1000.31
2019-05-03T00:17:15.905Z,1000.30
2019-05-03T00:18:15.900Z,1000.35
2019-05-03T00:19:15.906Z,1000.34
2019-05-03T00:20:15.890Z,1000.33
2019-05-03T00:21:15.885Z,1000.36
2019-05-03T00:22:15.879Z,1000.30
2019-05-03T00:23:15.874Z,1000.36
2019-05-03T00:24:15.868Z,1000.31
2019-05-03T00:25:15.863Z,1000.33
2019-05-03T00:26:15.858Z,1000.34
2019-05-03T00:27:15.864Z,1000.32
2019-05-03T00:28:15.848Z,1000.32
2019-05-03T00:29:15.843Z,1000.32
2019-05-03T00:30:15.837Z,1000.31
2019-05-03T00:31:15.833Z,1000.32
2019-05-03T00:32:15.827Z,1000.34
2019-05-03T00:33:15.824Z,1000.29
2019-05-03T00:34:15.816Z,1000.35
2019-05-03T00:35:15.816Z,1000.24
2019-05-03T00:36:15.811Z,1000.28
2019-05-03T00:37:15.803Z,1000.29
2019-05-03T00:38:15.797Z,1000.34
2019-05-03T00:39:15.792Z,1000.31
2019-05-03T00:40:15.785Z,1000.33
2019-05-03T00:41:15.783Z,1000.29
2019-05-03T00:42:15.784Z,1000.26
2019-05-03T00:43:15.772Z,1000.26
2019-05-03T00:44:15.767Z,1000.26
2019-05-03T00:45:15.761Z,1000.25
2019-05-03T00:46:15.756Z,1000.23
2019-05-03T00:47:15.751Z,1000.26
2019-05-03T00:48:15.749Z,1000.25
2019-05-03T00:49:15.740Z,1000.25
2019-05-03T00:50:15.735Z,1000.20
2019-05-03T00:51:15.732Z,1000.24
2019-05-03T00:52:15.725Z,1000.29
2019-05-03T00:53:15.720Z,1000.27
2019-05-03T00:54:15.716Z,1000.22
2019-05-03T00:55:18.753Z,1000.25
2019-05-03T00:56:15.714Z,1000.25
2019-05-03T00:57:15.703Z,1000.22
2019-05-03T00:58:15.695Z,1000.22
2019-05-03T00:59:15.690Z,1000.27
2019-05-03T01:00:15.685Z,1000.23
2019-05-03T01:01:15.679Z,1000.21
2019-05-03T01:02:15.674Z,1000.19
2019-05-03T01:03:15.670Z,1000.25
2019-05-03T01:04:15.662Z,1000.28
2019-05-03T01:05:15.657Z,1000.26
2019-05-03T01:06:15.652Z,1000.22
2019-05-03T01:07:15.650Z,1000.25
2019-05-03T01:08:15.645Z,1000.25
2019-05-03T01:09:15.636Z,1000.27
2019-05-03T01:10:15.631Z,1000.26
2019-05-03T01:11:15.627Z,1000.28
2019-05-03T01:12:15.624Z,1000.30
2019-05-03T01:13:15.616Z,1000.28
2019-05-03T01:14:15.613Z,1000.32
2019-05-03T01:15:15.607Z,1000.34
2019-05-03T01:16:15.601Z,1000.33
2019-05-03T01:17:15.597Z,1000.34
2019-05-03T01:18:15.591Z,1000.39
2019-05-03T01:19:15.586Z,1000.34
2019-05-03T01:20:15.581Z,1000.38
2019-05-03T01:21:15.575Z,1000.36
2019-05-03T01:22:15.570Z,1000.33
2019-05-03T01:23:15.565Z,1000.35
2019-05-03T01:24:18.125Z,1000.37
2019-05-03T01:25:15.553Z,1000.33
2019-05-03T01:26:15.548Z,1000.33
2019-05-03T01:27:15.543Z,1000.28
2019-05-03T01:28:15.538Z,1000.29
2019-05-03T01:29:15.532Z,1000.25
2019-05-03T01:30:15.528Z,1000.29
2019-05-03T01:31:15.522Z,1000.30
2019-05-03T01:32:15.517Z,1000.28
2019-05-03T01:33:15.511Z,1000.31
2019-05-03T01:34:15.506Z,1000.30
2019-05-03T01:35:15.518Z,1000.30
2019-05-03T01:36:15.497Z,1000.31
2019-05-03T01:37:15.492Z,1000.31
2019-05-03T01:38:15.487Z,1000.27
2019-05-03T01:39:15.482Z,1000.26
2019-05-03T01:40:15.476Z,1000.30
2019-05-03T01:41:15.470Z,1000.31
2019-05-03T01:42:15.465Z,1000.30
2019-05-03T01:43:15.461Z,1000.33
2019-05-03T01:44:15.459Z,1000.38
2019-05-03T01:45:15.451Z,1000.35
2019-05-03T01:46:15.444Z,1000.36
2019-05-03T01:47:15.440Z,1000.36
2019-05-03T01:48:15.434Z,1000.34
2019-05-03T01:49:15.428Z,1000.39
2019-05-03T01:50:15.423Z,1000.40
2019-05-03T01:51:15.418Z,1000.39
2019-05-03T01:52:15.412Z,1000.43
2019-05-03T01:53:15.407Z,1000.44
2019-05-03T01:54:15.403Z,1000.41
2019-05-03T01:55:16.001Z,1000.40
2019-05-03T01:56:15.397Z,1000.44
2019-05-03T01:57:15.386Z,1000.41
2019-05-03T01:58:15.382Z,1000.44
2019-05-03T01:59:15.377Z,1000.45
2019-05-03T02:00:15.382Z,1000.44
2019-05-03T02:01:15.365Z,1000.48
2019-05-03T02:02:15.362Z,1000.46
2019-05-03T02:03:15.356Z,1000.48
2019-05-03T02:04:15.350Z,1000.49
2019-05-03T02:05:15.347Z,1000.51
2019-05-03T02:06:15.342Z,1000.50
2019-05-03T02:07:15.334Z,1000.52
2019-05-03T02:08:15.331Z,1000.53
2019-05-03T02:09:15.323Z,1000.51
2019-05-03T02:10:15.319Z,1000.54
2019-05-03T02:11:15.314Z,1000.52
2019-05-03T02:12:15.315Z,1000.48
2019-05-03T02:13:15.303Z,1000.51
2019-05-03T02:14:15.299Z,1000.51
2019-05-03T02:15:15.293Z,1000.50
2019-05-03T02:16:15.296Z,1000.50
2019-05-03T02:17:15.281Z,1000.57
2019-05-03T02:18:15.314Z,1000.57
2019-05-03T02:19:15.271Z,1000.58
2019-05-03T02:20:15.266Z,1000.60
2019-05-03T02:21:15.260Z,1000.59
2019-05-03T02:22:15.256Z,1000.61
2019-05-03T02:23:15.251Z,1000.63
2019-05-03T02:24:15.245Z,1000.60
2019-05-03T02:25:15.240Z,1000.63
2019-05-03T02:26:15.235Z,1000.65
2019-05-03T02:27:15.232Z,1000.65
2019-05-03T02:28:15.225Z,1000.64
2019-05-03T02:29:15.222Z,1000.65
2019-05-03T02:30:15.215Z,1000.63
2019-05-03T02:31:15.210Z,1000.67
2019-05-03T02:32:15.204Z,1000.67
2019-05-03T02:33:15.199Z,1000.69
2019-05-03T02:34:15.194Z,1000.69
2019-05-03T02:35:15.191Z,1000.71
2019-05-03T02:36:15.183Z,1000.71
2019-05-03T02:37:15.176Z,1000.76
2019-05-03T02:38:15.179Z,1000.75
2019-05-03T02:39:15.166Z,1000.74
2019-05-03T02:40:15.161Z,1000.72
2019-05-03T02:41:15.157Z,1000.70
2019-05-03T02:42:16.109Z,1000.67
2019-05-03T02:43:16.520Z,1000.73
2019-05-03T02:44:15.593Z,1000.79
2019-05-03T02:45:15.484Z,1000.78
2019-05-03T02:46:16.721Z,1000.77
2019-05-03T02:47:15.917Z,1000.79
2019-05-03T02:48:16.577Z,1000.80
2019-05-03T02:49:15.421Z,1000.81
2019-05-03T02:50:16.719Z,1000.79
2019-05-03T02:51:15.727Z,1000.78
2019-05-03T02:52:15.235Z,1000.80
2019-05-03T02:53:15.780Z,1000.82
2019-05-03T02:54:15.698Z,1000.81
2019-05-03T02:55:15.992Z,1000.79
2019-05-03T02:56:22.010Z,1000.81
2019-05-03T02:57:15.153Z,1000.82
2019-05-03T02:58:15.915Z,1000.80
2019-05-03T02:59:15.800Z,1000.81
2019-05-03T03:00:16.277Z,1000.80
2019-05-03T03:01:16.326Z,1000.84
2019-05-03T03:02:15.220Z,1000.85
2019-05-03T03:03:16.673Z,1000.83
2019-05-03T03:04:15.744Z,1000.84
2019-05-03T03:05:16.588Z,1000.85
2019-05-03T03:06:15.766Z,1000.87
2019-05-03T03:07:15.206Z,1000.86
2019-05-03T03:08:16.273Z,1000.86
2019-05-03T03:09:16.479Z,1000.87
2019-05-03T03:10:16.188Z,1000.90
2019-05-03T03:11:15.577Z,1000.87
2019-05-03T03:12:15.285Z,1000.88
2019-05-03T03:13:16.317Z,1000.89
2019-05-03T03:14:16.731Z,1000.90
2019-05-03T03:15:16.238Z,1000.89
2019-05-03T03:16:16.294Z,1000.90
2019-05-03T03:17:15.014Z,1000.93
2019-05-03T03:18:15.742Z,1000.92
2019-05-03T03:19:15.890Z,1000.94
2019-05-03T03:20:16.130Z,1000.94
2019-05-03T03:21:16.076Z,1000.94
2019-05-03T03:22:15.937Z,1000.92
2019-05-03T03:23:17.970Z,1000.89
2019-05-03T03:24:16.952Z,1000.93
2019-05-03T03:25:17.626Z,1000.88
2019-05-03T03:26:16.977Z,1000.89
2019-05-03T03:27:16.330Z,1000.89
2019-05-03T03:28:15.854Z,1000.95
2019-05-03T03:29:16.083Z,1000.96
2019-05-03T03:30:17.353Z,1000.96
2019-05-03T03:31:17.650Z,1000.98
2019-05-03T03:32:18.219Z,1001.06
2019-05-03T03:33:17.550Z,1000.98
2019-05-03T03:34:18.395Z,1000.99
2019-05-03T03:35:20.209Z,1000.98
2019-05-03T03:36:37.837Z,1000.97
2019-05-03T03:37:15.592Z,1000.98
2019-05-03T03:38:15.507Z,1000.97
2019-05-03T03:39:15.089Z,1001.02
2019-05-03T03:40:16.057Z,1001.00
2019-05-03T03:41:16.278Z,1001.03
2019-05-03T03:42:16.082Z,1001.03
2019-05-03T03:43:15.690Z,1001.07
2019-05-03T03:44:15.258Z,1001.07
2019-05-03T03:45:16.609Z,1001.09
2019-05-03T03:46:15.763Z,1001.07
2019-05-03T03:47:16.785Z,1001.10
2019-05-03T03:48:15.770Z,1001.13
2019-05-03T03:49:15.543Z,1001.15
2019-05-03T03:50:15.144Z,1001.14
2019-05-03T03:51:15.558Z,1001.12
2019-05-03T03:52:15.992Z,1001.15
2019-05-03T03:53:15.440Z,1001.17
2019-05-03T03:54:15.471Z,1001.13
2019-05-03T03:55:15.921Z,1001.21
2019-05-03T03:56:15.994Z,1001.21
2019-05-03T03:57:15.896Z,1001.23
2019-05-03T03:58:21.923Z,1001.22
2019-05-03T03:59:15.382Z,1001.27
2019-05-03T04:00:16.233Z,1001.20
2019-05-03T04:01:15.690Z,1001.29
2019-05-03T04:02:16.061Z,1001.25
2019-05-03T04:03:15.804Z,1001.29
2019-05-03T04:04:16.026Z,1001.32
2019-05-03T04:05:15.921Z,1001.27
2019-05-03T04:06:15.381Z,1001.34
2019-05-03T04:07:15.747Z,1001.33
2019-05-03T04:08:16.193Z,1001.36
2019-05-03T04:09:16.078Z,1001.42
2019-05-03T04:10:15.665Z,1001.38
2019-05-03T04:11:15.611Z,1001.40
2019-05-03T04:12:16.558Z,1001.36
2019-05-03T04:13:15.942Z,1001.45
2019-05-03T04:14:16.131Z,1001.43
2019-05-03T04:15:16.027Z,1001.48
2019-05-03T04:16:20.307Z,1001.48
2019-05-03T04:17:15.061Z,1001.54
2019-05-03T04:18:16.331Z,1001.51
2019-05-03T04:19:17.147Z,1001.53
2019-05-03T04:20:16.280Z,1001.57
2019-05-03T04:21:16.252Z,1001.52
2019-05-03T04:22:16.484Z,1001.54
2019-05-03T04:23:16.287Z,1001.55
2019-05-03T04:24:16.298Z,1001.56
2019-05-03T04:25:15.441Z,1001.53
2019-05-03T04:26:16.334Z,1001.61
2019-05-03T04:27:22.259Z,1001.55
2019-05-03T04:28:16.282Z,1001.56
2019-05-03T04:29:16.086Z,1001.63
2019-05-03T04:30:16.473Z,1001.58
2019-05-03T04:31:15.210Z,1001.56
2019-05-03T04:32:15.738Z,1001.60
2019-05-03T04:33:16.030Z,1001.61
2019-05-03T04:34:16.189Z,1001.56
2019-05-03T04:35:16.521Z,1001.61
2019-05-03T04:36:16.007Z,1001.63
2019-05-03T04:37:16.098Z,1001.63
2019-05-03T04:38:16.208Z,1001.63
2019-05-03T04:39:19.642Z,1001.64
2019-05-03T04:40:15.566Z,1001.65
2019-05-03T04:41:15.862Z,1001.66
2019-05-03T04:42:16.583Z,1001.64
2019-05-03T04:43:16.480Z,1001.69
2019-05-03T04:44:15.513Z,1001.74
2019-05-03T04:45:16.566Z,1001.70
2019-05-03T04:46:16.411Z,1001.75
2019-05-03T04:47:15.700Z,1001.76
2019-05-03T04:48:15.998Z,1001.81
2019-05-03T04:49:15.138Z,1001.75
2019-05-03T04:50:16.309Z,1001.83
2019-05-03T04:51:16.646Z,1001.81
2019-05-03T04:52:16.515Z,1001.84
2019-05-03T04:53:16.227Z,1001.88
2019-05-03T04:54:16.340Z,1001.86
2019-05-03T04:55:16.038Z,1001.90
2019-05-03T04:56:16.941Z,1001.90
2019-05-03T04:57:16.050Z,1001.94
2019-05-03T04:58:16.091Z,1001.94
2019-05-03T04:59:15.918Z,1001.93
2019-05-03T05:00:15.951Z,1001.95
2019-05-03T05:01:15.834Z,1001.95
2019-05-03T05:02:15.886Z,1002.01
2019-05-03T05:03:15.097Z,1001.99
2019-05-03T05:04:16.103Z,1002.03
2019-05-03T05:05:15.341Z,1002.06
2019-05-03T05:06:15.433Z,1002.07
2019-05-03T05:07:15.483Z,1002.07
2019-05-03T05:08:16.240Z,1002.10
2019-05-03T05:09:15.531Z,1002.12
2019-05-03T05:10:15.302Z,1002.19
2019-05-03T05:11:15.740Z,1002.18
2019-05-03T05:12:16.137Z,1002.15
2019-05-03T05:13:15.785Z,1002.18
2019-05-03T05:14:15.321Z,1002.15
2019-05-03T05:15:15.609Z,1002.18
2019-05-03T05:16:16.009Z,1002.18
2019-05-03T05:17:16.285Z,1002.23
2019-05-03T05:18:15.938Z,1002.22
2019-05-03T05:19:15.189Z,1002.23
2019-05-03T05:20:14.506Z,1002.24
2019-05-03T05:21:15.000Z,1002.27
2019-05-03T05:22:15.529Z,1002.26
2019-05-03T05:23:14.747Z,1002.28
2019-05-03T05:24:15.162Z,1002.25
2019-05-03T05:25:14.851Z,1002.28
2019-05-03T05:26:14.462Z,1002.29
2019-05-03T05:27:14.659Z,1002.35
2019-05-03T05:28:15.001Z,1002.31
2019-05-03T05:29:14.579Z,1002.31
2019-05-03T05:30:14.924Z,1002.33
2019-05-03T05:31:15.156Z,1002.34
2019-05-03T05:32:14.461Z,1002.39
2019-05-03T05:33:14.550Z,1002.34
2019-05-03T05:34:15.360Z,1002.36
2019-05-03T05:35:14.428Z,1002.35
2019-05-03T05:36:15.303Z,1002.35
2019-05-03T05:37:14.547Z,1002.35
2019-05-03T05:38:15.000Z,1002.34
2019-05-03T05:39:15.247Z,1002.38
2019-05-03T05:40:15.633Z,1002.35
2019-05-03T05:41:15.626Z,1002.31
2019-05-03T05:42:14.892Z,1002.37
2019-05-03T05:43:15.197Z,1002.37
2019-05-03T05:44:14.525Z,1002.39
2019-05-03T05:45:15.342Z,1002.41
2019-05-03T05:46:14.647Z,1002.38
2019-05-03T05:47:15.005Z,1002.47
2019-05-03T05:48:15.369Z,1002.46
2019-05-03T05:49:14.679Z,1002.42
2019-05-03T05:50:14.890Z,1002.40
2019-05-03T05:51:15.967Z,1002.36
2019-05-03T05:52:15.497Z,1002.39
2019-05-03T05:53:15.266Z,1002.42
2019-05-03T05:54:14.374Z,1002.41
2019-05-03T05:55:14.950Z,1002.40
2019-05-03T05:56:15.671Z,1002.44
2019-05-03T05:57:14.989Z,1002.43
2019-05-03T05:58:15.562Z,1002.42
2019-05-03T05:59:14.850Z,1002.43
2019-05-03T06:00:15.302Z,1002.43
2019-05-03T06:01:14.622Z,1002.44
2019-05-03T06:02:15.033Z,1002.45
2019-05-03T06:03:14.931Z,1002.47
2019-05-03T06:04:15.379Z,1002.48
2019-05-03T06:05:14.809Z,1002.42
2019-05-03T06:06:15.255Z,1002.43
2019-05-03T06:07:14.867Z,1002.49
2019-05-03T06:08:15.082Z,1002.44
2019-05-03T06:09:15.306Z,1002.46
2019-05-03T06:10:14.745Z,1002.44
2019-05-03T06:11:14.896Z,1002.47
2019-05-03T06:12:14.889Z,1002.46
2019-05-03T06:13:15.235Z,1002.47
2019-05-03T06:14:15.317Z,1002.54
2019-05-03T06:15:15.003Z,1002.52
2019-05-03T06:16:15.506Z,1002.52
2019-05-03T06:17:14.618Z,1002.52
2019-05-03T06:18:14.631Z,1002.55
2019-05-03T06:19:14.679Z,1002.51
2019-05-03T06:20:15.578Z,1002.49
2019-05-03T06:21:14.812Z,1002.50
2019-05-03T06:22:15.354Z,1002.51
2019-05-03T06:23:14.450Z,1002.59
2019-05-03T06:24:14.796Z,1002.53
2019-05-03T06:25:16.636Z,1002.54
2019-05-03T06:26:15.637Z,1002.53
2019-05-03T06:27:15.273Z,1002.54
2019-05-03T06:28:19.931Z,1002.49
2019-05-03T06:29:14.956Z,1002.51
2019-05-03T06:30:14.965Z,1002.53
2019-05-03T06:31:14.891Z,1002.60
2019-05-03T06:32:15.403Z,1002.57
2019-05-03T06:33:14.359Z,1002.54
2019-05-03T06:34:14.959Z,1002.59
2019-05-03T06:35:15.229Z,1002.68
2019-05-03T06:36:15.275Z,1002.60
2019-05-03T06:37:14.833Z,1002.55
2019-05-03T06:38:15.256Z,1002.55
2019-05-03T06:39:15.466Z,1002.63
2019-05-03T06:40:14.934Z,1002.54
2019-05-03T06:41:15.052Z,1002.54
2019-05-03T06:42:16.030Z,1002.58
2019-05-03T06:43:15.614Z,1002.63
2019-05-03T06:44:14.440Z,1002.67
2019-05-03T06:45:15.053Z,1002.70
2019-05-03T06:46:16.421Z,1002.62
2019-05-03T06:47:14.839Z,1002.61
2019-05-03T06:48:15.772Z,1002.58
2019-05-03T06:49:15.147Z,1002.62
2019-05-03T06:50:14.561Z,1002.59
2019-05-03T06:51:19.180Z,1002.62
2019-05-03T06:52:14.738Z,1002.63
2019-05-03T06:53:15.491Z,1002.65
2019-05-03T06:54:15.637Z,1002.62
2019-05-03T06:55:14.474Z,1002.56
2019-05-03T06:56:14.829Z,1002.61
2019-05-03T06:57:14.806Z,1002.58
2019-05-03T06:58:15.314Z,1002.61
2019-05-03T06:59:14.389Z,1002.65
2019-05-03T07:00:15.366Z,1002.66
2019-05-03T07:01:14.897Z,1002.67
2019-05-03T07:02:14.869Z,1002.68
2019-05-03T07:03:15.157Z,1002.72
2019-05-03T07:04:15.214Z,1002.62
2019-05-03T07:05:15.281Z,1002.66
2019-05-03T07:06:15.043Z,1002.67
2019-05-03T07:07:15.420Z,1002.71
2019-05-03T07:08:15.223Z,1002.65
2019-05-03T07:09:14.454Z,1002.69
2019-05-03T07:10:15.028Z,1002.68
2019-05-03T07:11:15.356Z,1002.64
2019-05-03T07:12:14.854Z,1002.62
2019-05-03T07:13:15.189Z,1002.64
2019-05-03T07:14:15.433Z,1002.72
2019-05-03T07:15:14.486Z,1002.74
2019-05-03T07:16:14.938Z,1002.77
2019-05-03T07:17:14.474Z,1002.74
2019-05-03T07:18:15.586Z,1002.76
2019-05-03T07:19:14.744Z,1002.76
2019-05-03T07:20:14.830Z,1002.81
2019-05-03T07:21:15.257Z,1002.81
2019-05-03T07:22:15.233Z,1002.78
2019-05-03T07:23:15.428Z,1002.78
2019-05-03T07:24:14.664Z,1002.75
2019-05-03T07:25:14.939Z,1002.74
2019-05-03T07:26:15.061Z,1002.68
2019-05-03T07:27:15.703Z,1002.72
2019-05-03T07:28:14.970Z,1002.74
2019-05-03T07:29:15.253Z,1002.77
2019-05-03T07:30:15.541Z,1002.75
2019-05-03T07:31:15.058Z,1002.72
2019-05-03T07:32:15.392Z,1002.67
2019-05-03T07:33:15.085Z,1002.73
2019-05-03T07:34:15.427Z,1002.73
2019-05-03T07:35:14.765Z,1002.75
2019-05-03T07:36:15.297Z,1002.75
2019-05-03T07:37:14.558Z,1002.76
2019-05-03T07:38:15.485Z,1002.81
2019-05-03T07:39:14.516Z,1002.75
2019-05-03T07:40:14.822Z,1002.71
2019-05-03T07:41:14.908Z,1002.75
2019-05-03T07:42:15.526Z,1002.75
2019-05-03T07:43:14.864Z,1002.73
2019-05-03T07:44:15.221Z,1002.74
2019-05-03T07:45:14.915Z,1002.66
2019-05-03T07:46:14.681Z,1002.72
2019-05-03T07:47:14.883Z,1002.78
2019-05-03T07:48:15.037Z,1002.78
2019-05-03T07:49:15.258Z,1002.79
2019-05-03T07:50:15.236Z,1002.74
2019-05-03T07:51:14.450Z,1002.74
2019-05-03T07:52:14.755Z,1002.76
2019-05-03T07:53:15.108Z,1002.71
2019-05-03T07:54:15.514Z,1002.77
2019-05-03T07:55:14.994Z,1002.75
2019-05-03T07:56:15.389Z,1002.74
2019-05-03T07:57:14.908Z,1002.78
2019-05-03T07:58:15.024Z,1002.79
2019-05-03T07:59:14.978Z,1002.71
2019-05-03T08:00:14.984Z,1002.76
2019-05-03T08:01:14.917Z,1002.76
2019-05-03T08:02:14.466Z,1002.75
2019-05-03T08:03:15.310Z,1002.82
2019-05-03T08:04:15.268Z,1002.82
2019-05-03T08:05:15.431Z,1002.82
2019-05-03T08:06:14.936Z,1003.07
2019-05-03T08:07:20.713Z,1003.54
2019-05-03T08:08:14.948Z,1003.56
2019-05-03T08:09:15.171Z,1003.55
2019-05-03T08:10:15.311Z,1003.52
2019-05-03T08:11:14.437Z,1003.64
2019-05-03T08:12:15.362Z,1003.69
2019-05-03T08:13:15.085Z,1003.60
2019-05-03T08:14:16.079Z,1003.64
2019-05-03T08:15:15.586Z,1003.70
2019-05-03T08:16:15.900Z,1003.74
2019-05-03T08:17:15.243Z,1003.38
2019-05-03T08:18:15.364Z,1003.12
2019-05-03T08:19:15.199Z,1003.68
2019-05-03T08:20:14.402Z,1003.60
2019-05-03T08:21:14.921Z,1003.63
2019-05-03T08:22:14.957Z,1003.40
2019-05-03T08:23:24.405Z,1003.34
2019-05-03T08:24:14.938Z,1003.04
2019-05-03T08:25:14.646Z,1003.01
2019-05-03T08:26:15.311Z,1003.09
2019-05-03T08:27:14.812Z,1003.00
2019-05-03T08:28:14.654Z,1002.99
2019-05-03T08:29:18.374Z,1002.95
2019-05-03T08:30:14.775Z,1002.97
2019-05-03T08:31:15.116Z,1002.94
2019-05-03T08:32:15.322Z,1002.94
2019-05-03T08:33:14.744Z,1002.89
2019-05-03T08:34:15.274Z,1002.88
2019-05-03T08:35:15.192Z,1002.91
2019-05-03T08:36:15.488Z,1002.96
2019-05-03T08:37:15.228Z,1002.92
2019-05-03T08:38:15.197Z,1003.24
2019-05-03T08:39:15.740Z,1003.27
2019-05-03T08:40:15.465Z,1002.98
2019-05-03T08:41:14.548Z,1003.25
2019-05-03T08:42:15.000Z,1003.21
2019-05-03T08:43:15.417Z,1003.30
2019-05-03T08:44:14.548Z,1003.29
2019-05-03T08:45:14.833Z,1003.03
2019-05-03T08:46:14.845Z,1002.95
2019-05-03T08:47:15.362Z,1002.96
2019-05-03T08:48:15.087Z,1002.92
2019-05-03T08:49:15.041Z,1003.01
2019-05-03T08:50:19.386Z,1002.95
2019-05-03T08:51:14.880Z,1002.96
2019-05-03T08:52:15.543Z,1002.92
2019-05-03T08:53:15.407Z,1002.96
2019-05-03T08:54:15.076Z,1002.90
2019-05-03T08:55:15.644Z,1002.95
2019-05-03T08:56:15.497Z,1002.91
2019-05-03T08:57:14.954Z,1002.90
2019-05-03T08:58:15.360Z,1002.95
2019-05-03T08:59:26.182Z,1002.96
2019-05-03T09:00:14.454Z,1002.87
2019-05-03T09:01:14.825Z,1002.85
2019-05-03T09:02:14.266Z,1002.86
2019-05-03T09:03:14.414Z,1002.90
2019-05-03T09:04:15.376Z,1002.86
2019-05-03T09:05:15.316Z,1002.88
2019-05-03T09:06:15.318Z,1002.84
2019-05-03T09:07:14.766Z,1002.87
2019-05-03T09:08:15.577Z,1002.90
2019-05-03T09:09:15.061Z,1002.88
2019-05-03T09:10:16.792Z,1002.87
2019-05-03T09:11:15.399Z,1002.95
2019-05-03T09:12:14.491Z,1002.94
2019-05-03T09:13:14.744Z,1002.90
2019-05-03T09:14:14.970Z,1002.94
2019-05-03T09:15:15.172Z,1003.06
2019-05-03T09:16:14.773Z,1003.36
2019-05-03T09:17:15.116Z,1003.35
2019-05-03T09:18:16.848Z,1003.34
2019-05-03T09:19:14.761Z,1003.35
2019-05-03T09:20:15.449Z,1003.38
2019-05-03T09:21:14.758Z,1003.12
2019-05-03T09:22:14.795Z,1003.41
2019-05-03T09:23:14.881Z,1003.36
2019-05-03T09:24:15.027Z,1003.32
2019-05-03T09:25:15.325Z,1003.34
2019-05-03T09:26:15.113Z,1003.37
2019-05-03T09:27:14.887Z,1003.02
2019-05-03T09:28:15.063Z,1002.99
2019-05-03T09:29:14.767Z,1002.89
2019-05-03T09:30:14.538Z,1002.89
2019-05-03T09:31:15.332Z,1002.96
2019-05-03T09:32:14.732Z,1002.86
2019-05-03T09:33:15.147Z,1002.81
2019-05-03T09:34:14.776Z,1002.82
2019-05-03T09:35:27.203Z,1002.84
2019-05-03T09:36:14.672Z,1002.76
2019-05-03T09:37:15.362Z,1002.83
2019-05-03T09:38:15.017Z,1002.79
2019-05-03T09:39:14.898Z,1002.74
2019-05-03T09:40:15.054Z,1002.87
2019-05-03T09:41:15.039Z,1002.78
2019-05-03T09:42:15.392Z,1002.84
2019-05-03T09:43:15.058Z,1003.08
2019-05-03T09:44:15.081Z,1003.17
2019-05-03T09:45:15.253Z,1003.36
2019-05-03T09:46:14.594Z,1003.33
2019-05-03T09:47:14.633Z,1003.48
2019-05-03T09:48:15.039Z,1003.29
2019-05-03T09:49:16.228Z,1003.26
2019-05-03T09:50:15.473Z,1003.26
2019-05-03T09:51:14.801Z,1003.50
2019-05-03T09:52:15.805Z,1003.44
2019-05-03T09:53:14.763Z,1003.28
2019-05-03T09:54:14.858Z,1003.31
2019-05-03T09:55:14.516Z,1003.22
2019-05-03T09:56:15.370Z,1003.31
2019-05-03T09:57:15.191Z,1003.35
2019-05-03T09:58:15.160Z,1003.47
2019-05-03T09:59:14.794Z,1003.52
2019-05-03T10:00:13.529Z,1003.47
2019-05-03T10:01:15.077Z,1002.85
2019-05-03T10:02:15.031Z,1002.85
2019-05-03T10:03:13.542Z,1002.78
2019-05-03T10:04:13.538Z,1002.72
2019-05-03T10:05:15.473Z,1002.65
2019-05-03T10:06:15.296Z,1002.63
2019-05-03T10:07:15.310Z,1002.64
2019-05-03T10:08:15.595Z,1002.69
2019-05-03T10:09:15.370Z,1002.69
2019-05-03T10:10:15.424Z,1002.70
2019-05-03T10:11:15.505Z,1002.66
2019-05-03T10:12:15.966Z,1002.65
2019-05-03T10:13:21.645Z,1002.68
2019-05-03T10:14:15.440Z,1002.66
2019-05-03T10:15:15.358Z,1002.62
2019-05-03T10:16:15.397Z,1002.67
2019-05-03T10:17:15.235Z,1002.60
2019-05-03T10:18:13.561Z,1002.57
2019-05-03T10:19:14.355Z,1002.60
2019-05-03T10:20:15.288Z,1002.57
2019-05-03T10:21:14.836Z,1002.61
2019-05-03T10:22:15.374Z,1002.80
2019-05-03T10:23:14.908Z,1002.86
2019-05-03T10:24:15.222Z,1002.98
2019-05-03T10:25:13.562Z,1002.84
2019-05-03T10:26:14.993Z,1002.82
2019-05-03T10:27:15.222Z,1002.82
2019-05-03T10:28:15.254Z,1002.73
2019-05-03T10:29:15.256Z,1002.69
2019-05-03T10:30:16.546Z,1002.71
2019-05-03T10:31:13.567Z,1002.69
2019-05-03T10:32:15.121Z,1002.68
2019-05-03T10:33:15.519Z,1002.61
2019-05-03T10:34:15.423Z,1002.59
2019-05-03T10:35:15.175Z,1002.59
2019-05-03T10:36:15.400Z,1002.63
2019-05-03T10:37:15.151Z,1002.55
2019-05-03T10:38:15.142Z,1002.53
2019-05-03T10:39:15.380Z,1002.50
2019-05-03T10:40:13.560Z,1002.48
2019-05-03T10:41:13.561Z,1002.48
2019-05-03T10:42:13.562Z,1002.53
2019-05-03T10:43:13.562Z,1002.60
2019-05-03T10:44:15.059Z,1002.66
2019-05-03T10:45:15.190Z,1002.61
2019-05-03T10:46:15.672Z,1002.68
2019-05-03T10:47:14.677Z,1003.15
2019-05-03T10:48:15.362Z,1002.80
2019-05-03T10:49:15.174Z,1002.62
2019-05-03T10:50:15.447Z,1002.84
2019-05-03T10:51:15.366Z,1002.75
2019-05-03T10:52:15.025Z,1002.90
2019-05-03T10:53:15.286Z,1003.17
2019-05-03T10:54:14.622Z,1002.88
2019-05-03T10:55:15.717Z,1002.69
2019-05-03T10:56:14.796Z,1002.71
2019-05-03T10:57:15.754Z,1002.79
2019-05-03T10:58:15.554Z,1002.67
2019-05-03T10:59:13.556Z,1002.62
2019-05-03T11:00:41.706Z,1002.63
2019-05-03T11:01:13.557Z,1002.64
2019-05-03T11:02:13.557Z,1002.60
2019-05-03T11:03:13.556Z,1002.69
2019-05-03T11:04:14.758Z,1002.57
2019-05-03T11:05:14.627Z,1002.55
2019-05-03T11:06:14.818Z,1002.61
2019-05-03T11:07:14.910Z,1002.67
2019-05-03T11:08:14.562Z,1002.51
2019-05-03T11:09:15.261Z,1002.48
2019-05-03T11:10:14.686Z,1002.47
2019-05-03T11:11:15.107Z,1002.40
2019-05-03T11:12:14.794Z,1002.42
2019-05-03T11:13:15.306Z,1002.50
2019-05-03T11:14:14.958Z,1002.51
2019-05-03T11:15:14.965Z,1002.37
2019-05-03T11:16:14.822Z,1002.40
2019-05-03T11:17:14.857Z,1002.35
2019-05-03T11:18:14.696Z,1002.34
2019-05-03T11:19:14.516Z,1002.39
2019-05-03T11:20:22.206Z,1002.39
2019-05-03T11:21:15.527Z,1002.39
2019-05-03T11:22:14.577Z,1002.39
2019-05-03T11:23:14.646Z,1002.36
2019-05-03T11:24:14.787Z,1002.41
2019-05-03T11:25:13.549Z,1002.35
2019-05-03T11:26:13.549Z,1002.38
2019-05-03T11:27:13.548Z,1002.37
2019-05-03T11:28:13.546Z,1002.39
2019-05-03T11:29:15.365Z,1002.37
2019-05-03T11:30:15.637Z,1002.34
2019-05-03T11:31:15.494Z,1002.38
2019-05-03T11:32:14.904Z,1002.30
2019-05-03T11:33:15.157Z,1002.32
2019-05-03T11:34:15.092Z,1002.28
2019-05-03T11:35:15.017Z,1002.32
2019-05-03T11:36:14.950Z,1002.34
2019-05-03T11:37:14.547Z,1002.27
2019-05-03T11:38:15.070Z,1002.27
2019-05-03T11:39:14.493Z,1002.32
2019-05-03T11:40:15.545Z,1002.37
2019-05-03T11:41:16.469Z,1002.30
2019-05-03T11:42:15.173Z,1002.29
2019-05-03T11:43:15.144Z,1002.22
2019-05-03T11:44:15.371Z,1002.25
2019-05-03T11:45:15.148Z,1002.12
2019-05-03T11:46:13.523Z,1002.17
2019-05-03T11:47:15.035Z,1002.16
2019-05-03T11:48:14.811Z,1002.19
2019-05-03T11:49:14.864Z,1002.13
2019-05-03T11:50:14.815Z,1002.16
2019-05-03T11:51:15.182Z,1002.12
2019-05-03T11:52:15.740Z,1002.14
2019-05-03T11:53:14.542Z,1002.09
2019-05-03T11:54:15.534Z,1002.08
2019-05-03T11:55:15.743Z,1002.17
2019-05-03T11:56:14.844Z,1002.11
2019-05-03T11:57:15.673Z,1002.14
2019-05-03T11:58:14.947Z,1002.12
2019-05-03T11:59:14.771Z,1002.11
2019-05-03T12:00:14.726Z,1002.14
2019-05-03T12:01:19.521Z,1002.17
2019-05-03T12:02:15.239Z,1002.14
2019-05-03T12:03:15.236Z,1002.16
2019-05-03T12:04:15.316Z,1002.11
2019-05-03T12:05:15.096Z,1002.09